createdAt,value
2023-02-14T00:01:28.135Z,53.46
2023-02-14T00:04:01.376Z,53.65
2023-02-14T00:06:30.267Z,53.55
2023-02-14T00:08:58.327Z,53.46
2023-02-14T00:11:26.598Z,53.44
2023-02-14T00:14:13.068Z,53.88
2023-02-14T00:16:41.294Z,53.19
2023-02-14T00:19:09.573Z,54.00
2023-02-14T00:21:38.526Z,53.67
2023-02-14T00:24:08.860Z,52.82
2023-02-14T00:26:39.027Z,53.47
2023-02-14T00:29:10.051Z,53.57
2023-02-14T00:31:38.073Z,53.55
2023-02-14T00:34:06.455Z,53.31
2023-02-14T00:36:35.243Z,53.02
2023-02-14T00:39:07.118Z,53.32
2023-02-14T00:41:35.010Z,53.07
2023-02-14T00:44:03.195Z,52.76
2023-02-14T00:46:31.126Z,53.14
2023-02-14T00:48:59.159Z,53.09
2023-02-14T00:51:27.293Z,52.92
2023-02-14T00:53:55.650Z,53.39
2023-02-14T00:56:23.715Z,52.77
2023-02-14T00:58:51.898Z,52.29
2023-02-14T01:01:20.054Z,52.82
2023-02-14T01:03:48.235Z,52.94
2023-02-14T01:06:16.233Z,52.53
2023-02-14T01:08:44.393Z,52.73
2023-02-14T01:11:18.000Z,51.95
2023-02-14T01:13:47.972Z,52.21
2023-02-14T01:16:18.094Z,52.17
2023-02-14T01:18:46.254Z,52.42
2023-02-14T01:21:20.290Z,52.18
2023-02-14T01:23:51.325Z,51.77
2023-02-14T01:26:20.223Z,52.29
2023-02-14T01:28:48.099Z,52.18
2023-02-14T01:31:22.122Z,51.84
2023-02-14T01:33:50.454Z,52.25
2023-02-14T01:36:25.429Z,53.04
2023-02-14T01:38:54.818Z,52.34
2023-02-14T01:41:24.411Z,52.24
2023-02-14T01:44:02.986Z,52.24
2023-02-14T01:46:33.448Z,52.00
2023-02-14T01:49:09.752Z,52.12
2023-02-14T01:51:39.202Z,52.90
2023-02-14T01:54:07.446Z,52.37
2023-02-14T01:56:41.582Z,52.45
2023-02-14T01:59:11.218Z,52.36
2023-02-14T02:01:39.401Z,52.16
2023-02-14T02:04:16.656Z,52.26
2023-02-14T02:06:46.792Z,51.98
2023-02-14T02:09:17.701Z,52.48
2023-02-14T02:11:46.084Z,51.78
2023-02-14T02:14:19.099Z,51.91
2023-02-14T02:17:05.812Z,51.87
2023-02-14T02:19:49.329Z,52.19
2023-02-14T02:22:29.031Z,51.78
2023-02-14T02:25:17.208Z,51.35
2023-02-14T02:28:14.470Z,51.77
2023-02-14T02:31:06.846Z,51.26
2023-02-14T02:33:43.512Z,51.38
2023-02-14T02:36:29.919Z,51.04
2023-02-14T02:39:09.442Z,50.31
2023-02-14T02:41:56.373Z,50.15
2023-02-14T02:44:58.586Z,49.55
2023-02-14T02:47:33.992Z,49.96
2023-02-14T02:50:42.017Z,49.19
2023-02-14T02:53:35.409Z,49.20
2023-02-14T02:56:31.130Z,49.18
2023-02-14T02:59:19.406Z,49.36
2023-02-14T03:02:08.089Z,48.82
2023-02-14T03:04:53.930Z,48.51
2023-02-14T03:07:37.247Z,48.43
2023-02-14T03:10:06.533Z,47.57
2023-02-14T03:12:34.193Z,47.38
2023-02-14T03:15:30.449Z,46.86
2023-02-14T03:18:02.886Z,47.22
2023-02-14T03:20:45.874Z,46.69
2023-02-14T03:23:13.625Z,45.87
2023-02-14T03:26:13.968Z,45.82
2023-02-14T03:29:02.774Z,46.32
2023-02-14T03:31:37.522Z,46.60
2023-02-14T03:34:17.747Z,46.48
2023-02-14T03:37:04.007Z,46.36
2023-02-14T03:40:10.307Z,45.50
2023-02-14T03:42:46.143Z,44.83
2023-02-14T03:45:19.042Z,44.00
2023-02-14T03:47:47.444Z,43.62
2023-02-14T03:50:17.804Z,43.29
2023-02-14T03:52:46.489Z,42.98
2023-02-14T03:55:17.101Z,43.00
2023-02-14T03:58:13.487Z,42.96
2023-02-14T04:00:41.640Z,43.28
2023-02-14T04:03:13.440Z,43.70
2023-02-14T04:05:43.907Z,43.12
2023-02-14T04:08:12.794Z,43.03
2023-02-14T04:10:42.312Z,42.97
2023-02-14T04:13:10.723Z,42.52
2023-02-14T04:15:38.468Z,42.19
2023-02-14T04:18:24.714Z,41.25
2023-02-14T04:20:52.494Z,40.30
2023-02-14T04:23:21.079Z,40.44
2023-02-14T04:25:48.902Z,40.51
2023-02-14T04:28:16.883Z,39.71
2023-02-14T04:30:44.953Z,39.65
2023-02-14T04:33:12.970Z,39.03
2023-02-14T04:35:41.121Z,38.68
2023-02-14T04:38:08.965Z,38.15
2023-02-14T04:40:36.703Z,37.67
2023-02-14T04:43:05.353Z,37.27
2023-02-14T04:45:33.381Z,37.32
2023-02-14T04:48:01.364Z,37.18
2023-02-14T04:50:29.155Z,36.73
2023-02-14T04:52:57.230Z,36.48
2023-02-14T04:55:25.346Z,36.26
2023-02-14T04:57:53.464Z,36.70
2023-02-14T05:00:22.229Z,36.96
2023-02-14T05:02:50.080Z,37.08
2023-02-14T05:05:18.247Z,37.19
2023-02-14T05:07:48.229Z,37.14
2023-02-14T05:10:16.286Z,36.87
2023-02-14T05:12:44.761Z,36.21
2023-02-14T05:15:12.596Z,36.12
2023-02-14T05:17:40.672Z,36.47
2023-02-14T05:20:09.368Z,36.82
2023-02-14T05:22:37.114Z,36.80
2023-02-14T05:25:05.101Z,37.14
2023-02-14T05:27:33.141Z,36.96
2023-02-14T05:30:01.061Z,36.59
2023-02-14T05:32:29.081Z,36.49
2023-02-14T05:34:57.091Z,36.00
2023-02-14T05:37:24.948Z,37.13
2023-02-14T05:39:52.946Z,37.29
2023-02-14T05:42:21.166Z,38.00
2023-02-14T05:44:49.237Z,38.28
2023-02-14T05:47:17.259Z,38.48
2023-02-14T05:49:45.298Z,39.36
2023-02-14T05:52:13.106Z,39.75
2023-02-14T05:54:41.138Z,39.89
2023-02-14T05:57:09.085Z,40.41
2023-02-14T05:59:37.463Z,40.93
2023-02-14T06:02:05.331Z,41.32
2023-02-14T06:04:33.754Z,41.60
2023-02-14T06:07:01.515Z,41.79
2023-02-14T06:09:29.335Z,41.88
2023-02-14T06:11:57.747Z,42.68
2023-02-14T06:14:25.629Z,43.23
2023-02-14T06:16:54.352Z,43.34
2023-02-14T06:19:22.593Z,43.08
2023-02-14T06:21:50.436Z,43.00
2023-02-14T06:24:18.867Z,42.46
2023-02-14T06:26:48.528Z,42.41
2023-02-14T06:29:18.169Z,42.70
2023-02-14T06:31:46.093Z,42.49
2023-02-14T06:34:15.920Z,42.50
2023-02-14T06:36:44.536Z,42.70
2023-02-14T06:39:13.009Z,43.18
2023-02-14T06:41:41.169Z,43.36
2023-02-14T06:44:11.085Z,43.44
2023-02-14T06:46:39.168Z,44.42
2023-02-14T06:49:06.899Z,44.42
2023-02-14T06:51:34.743Z,44.90
2023-02-14T06:54:03.165Z,45.00
2023-02-14T06:56:31.178Z,45.01
2023-02-14T06:58:59.502Z,44.86
2023-02-14T07:01:27.848Z,45.05
2023-02-14T07:03:56.910Z,44.99
2023-02-14T07:06:24.663Z,44.65
2023-02-14T07:08:52.348Z,44.74
2023-02-14T07:11:20.738Z,44.40
2023-02-14T07:13:49.621Z,44.05
2023-02-14T07:16:17.754Z,44.08
2023-02-14T07:18:46.160Z,43.94
2023-02-14T07:21:13.846Z,43.93
2023-02-14T07:23:41.830Z,43.69
2023-02-14T07:26:10.178Z,44.38
2023-02-14T07:28:38.323Z,44.26
2023-02-14T07:31:06.857Z,44.15
2023-02-14T07:33:35.020Z,43.59
2023-02-14T07:36:07.879Z,43.58
2023-02-14T07:38:35.546Z,43.37
2023-02-14T07:41:03.359Z,43.59
2023-02-14T07:43:31.343Z,43.72
2023-02-14T07:46:00.995Z,44.09
2023-02-14T07:48:31.058Z,43.69
2023-02-14T07:51:00.591Z,43.43
2023-02-14T07:53:28.842Z,43.41
2023-02-14T07:55:57.257Z,43.21
2023-02-14T07:58:25.021Z,42.93
2023-02-14T08:00:53.075Z,43.14
2023-02-14T08:03:20.883Z,42.47
2023-02-14T08:05:57.530Z,42.59
2023-02-14T08:08:30.183Z,42.05
2023-02-14T08:10:58.545Z,42.31
2023-02-14T08:13:26.571Z,42.14
2023-02-14T08:16:06.897Z,42.74
2023-02-14T08:18:42.054Z,42.89
2023-02-14T08:21:11.318Z,42.94
2023-02-14T08:23:39.627Z,43.57
2023-02-14T08:26:08.059Z,43.86
2023-02-14T08:28:36.074Z,44.19
2023-02-14T08:31:04.556Z,44.59
2023-02-14T08:33:33.307Z,44.55
2023-02-14T08:36:01.205Z,45.06
2023-02-14T08:38:30.069Z,45.08
2023-02-14T08:41:04.552Z,45.07
2023-02-14T08:43:34.432Z,45.19
2023-02-14T08:46:03.089Z,45.29
2023-02-14T08:48:31.627Z,45.92
2023-02-14T08:50:59.719Z,46.06
2023-02-14T08:53:27.796Z,45.98
2023-02-14T08:55:55.628Z,46.16
2023-02-14T08:58:23.362Z,46.23
2023-02-14T09:00:51.559Z,46.76
2023-02-14T09:03:19.900Z,46.43
2023-02-14T09:05:47.885Z,46.45
2023-02-14T09:08:16.124Z,46.57
2023-02-14T09:10:44.137Z,46.72
2023-02-14T09:13:11.989Z,46.64
2023-02-14T09:15:40.688Z,46.64
2023-02-14T09:18:08.789Z,45.66
2023-02-14T09:20:37.148Z,45.89
2023-02-14T09:23:05.442Z,45.93
2023-02-14T09:25:33.699Z,45.63
2023-02-14T09:28:01.790Z,45.55
2023-02-14T09:30:29.684Z,45.46
2023-02-14T09:32:57.620Z,45.79
2023-02-14T09:35:25.385Z,46.03
2023-02-14T09:37:53.254Z,46.17
2023-02-14T09:40:21.352Z,46.23
2023-02-14T09:43:03.315Z,46.86
2023-02-14T09:45:31.878Z,46.62
2023-02-14T09:48:15.878Z,46.97
2023-02-14T09:50:49.097Z,47.05
2023-02-14T09:53:22.204Z,47.72
2023-02-14T09:56:15.488Z,47.47
2023-02-14T09:58:59.378Z,47.56
2023-02-14T10:01:32.617Z,47.77
2023-02-14T10:04:19.348Z,48.46
2023-02-14T10:07:12.593Z,47.99
2023-02-14T10:09:43.576Z,48.53
2023-02-14T10:12:19.924Z,49.30
2023-02-14T10:14:48.027Z,49.77
2023-02-14T10:17:18.879Z,49.86
2023-02-14T10:19:57.019Z,50.25
2023-02-14T10:22:46.917Z,50.06
2023-02-14T10:25:25.272Z,50.43
2023-02-14T10:27:53.790Z,50.45
2023-02-14T10:30:23.097Z,50.95
2023-02-14T10:33:02.026Z,50.75
2023-02-14T10:35:40.984Z,51.38
2023-02-14T10:38:37.202Z,52.27
2023-02-14T10:41:25.180Z,52.60
2023-02-14T10:44:09.528Z,51.79
2023-02-14T10:47:01.374Z,52.01
2023-02-14T10:49:45.143Z,52.25
2023-02-14T10:52:22.454Z,52.69
2023-02-14T10:55:00.474Z,53.83
2023-02-14T10:57:41.688Z,53.87
2023-02-14T11:00:31.640Z,53.69
2023-02-14T11:03:00.961Z,54.45
2023-02-14T11:05:38.122Z,54.17
2023-02-14T11:08:23.713Z,54.42
2023-02-14T11:10:51.693Z,53.79
2023-02-14T11:13:35.784Z,54.04
2023-02-14T11:16:09.268Z,53.86
2023-02-14T11:18:41.334Z,54.34
2023-02-14T11:21:11.358Z,54.25
2023-02-14T11:23:44.977Z,55.05
2023-02-14T11:26:35.091Z,54.83
2023-02-14T11:29:10.800Z,54.14
2023-02-14T11:31:39.623Z,54.42
2023-02-14T11:34:26.290Z,54.30
2023-02-14T11:36:56.163Z,54.09
2023-02-14T11:39:28.713Z,54.60
2023-02-14T11:41:57.668Z,54.50
2023-02-14T11:44:30.360Z,54.99
2023-02-14T11:46:58.356Z,54.82
2023-02-14T11:49:32.140Z,54.66
2023-02-14T11:52:10.407Z,54.64
2023-02-14T11:54:41.037Z,54.90
2023-02-14T11:57:22.830Z,54.89
2023-02-14T11:59:54.664Z,55.21
2023-02-14T12:02:38.872Z,55.10
2023-02-14T12:05:29.314Z,55.34
2023-02-14T12:08:07.222Z,55.86
2023-02-14T12:10:40.630Z,55.28
2023-02-14T12:13:09.512Z,55.26
2023-02-14T12:15:47.916Z,55.95
2023-02-14T12:18:47.863Z,55.69
2023-02-14T12:21:23.666Z,55.11
2023-02-14T12:24:25.603Z,55.95
2023-02-14T12:27:01.813Z,55.41
2023-02-14T12:29:42.872Z,55.30
2023-02-14T12:32:20.725Z,55.95
2023-02-14T12:34:50.128Z,55.59
2023-02-14T12:37:24.764Z,55.67
2023-02-14T12:40:02.509Z,55.71
2023-02-14T12:42:47.378Z,56.37
2023-02-14T12:45:25.978Z,56.71
2023-02-14T12:48:16.322Z,56.73
2023-02-14T12:50:48.921Z,57.34
2023-02-14T12:53:38.860Z,57.23
2023-02-14T12:56:34.854Z,57.39
2023-02-14T12:59:28.281Z,57.52
2023-02-14T13:02:15.722Z,56.82
2023-02-14T13:05:02.691Z,56.86
2023-02-14T13:08:07.492Z,57.03
2023-02-14T13:10:47.865Z,56.59
2023-02-14T13:13:37.143Z,56.80
2023-02-14T13:16:22.623Z,56.54
2023-02-14T13:18:57.125Z,55.96
2023-02-14T13:21:32.181Z,55.73
2023-02-14T13:24:29.418Z,55.76
2023-02-14T13:27:00.311Z,56.13
2023-02-14T13:29:33.996Z,55.69
2023-02-14T13:32:03.528Z,56.21
2023-02-14T13:34:37.770Z,55.64
2023-02-14T13:37:08.856Z,55.97
2023-02-14T13:39:43.416Z,55.62
2023-02-14T13:42:13.421Z,55.92
2023-02-14T13:44:50.812Z,55.76
2023-02-14T13:47:27.208Z,55.58
2023-02-14T13:50:04.308Z,55.53
2023-02-14T13:52:47.105Z,55.33
2023-02-14T13:55:23.815Z,54.99
2023-02-14T13:58:24.764Z,55.03
2023-02-14T14:00:53.580Z,55.06
2023-02-14T14:03:31.486Z,55.15
2023-02-14T14:06:12.316Z,55.30
2023-02-14T14:08:44.229Z,54.91
2023-02-14T14:11:22.354Z,54.88
2023-02-14T14:14:02.404Z,54.79
2023-02-14T14:16:35.534Z,55.19
2023-02-14T14:19:21.387Z,55.18
2023-02-14T14:22:09.974Z,55.26
2023-02-14T14:24:38.444Z,55.30
2023-02-14T14:27:15.996Z,55.73
2023-02-14T14:29:54.689Z,55.87
2023-02-14T14:32:30.788Z,55.87
2023-02-14T14:35:23.161Z,55.60
2023-02-14T14:37:53.709Z,55.76
2023-02-14T14:40:30.482Z,56.49
2023-02-14T14:43:21.986Z,57.40
2023-02-14T14:45:50.169Z,57.51
2023-02-14T14:48:22.832Z,57.59
2023-02-14T14:50:51.287Z,57.89
2023-02-14T14:53:46.483Z,57.47
2023-02-14T14:56:24.832Z,57.32
2023-02-14T14:58:52.985Z,56.58
2023-02-14T15:01:38.110Z,56.58
2023-02-14T15:04:16.429Z,56.71
2023-02-14T15:06:45.416Z,57.29
2023-02-14T15:09:23.469Z,56.92
2023-02-14T15:12:11.048Z,56.75
2023-02-14T15:14:42.012Z,57.02
2023-02-14T15:17:25.905Z,56.68
2023-02-14T15:19:56.224Z,56.63
2023-02-14T15:22:37.398Z,56.07
2023-02-14T15:25:14.621Z,55.98
2023-02-14T15:27:42.671Z,56.00
2023-02-14T15:30:39.549Z,56.04
2023-02-14T15:33:07.529Z,56.02
2023-02-14T15:35:37.588Z,56.05
2023-02-14T15:38:06.413Z,56.84
2023-02-14T15:40:35.238Z,56.65
2023-02-14T15:43:33.371Z,56.80
2023-02-14T15:46:37.610Z,57.04
2023-02-14T15:49:12.745Z,57.13
2023-02-14T15:51:41.302Z,56.84
2023-02-14T15:54:47.867Z,57.19
2023-02-14T15:57:26.914Z,56.86
2023-02-14T15:59:55.358Z,57.06
2023-02-14T16:02:42.870Z,57.02
2023-02-14T16:05:23.639Z,57.24
2023-02-14T16:08:05.619Z,56.97
2023-02-14T16:10:34.624Z,57.21
2023-02-14T16:13:14.885Z,57.08
2023-02-14T16:16:00.798Z,56.35
2023-02-14T16:18:39.792Z,56.12
2023-02-14T16:21:28.042Z,56.01
2023-02-14T16:24:14.175Z,56.81
2023-02-14T16:26:43.684Z,56.88
2023-02-14T16:29:13.646Z,56.76
2023-02-14T16:34:40.859Z,56.10
2023-02-14T16:37:10.369Z,56.20
2023-02-14T16:39:38.326Z,55.93
2023-02-14T16:42:06.401Z,55.49
2023-02-14T16:44:34.369Z,55.50
2023-02-14T16:47:02.728Z,55.75
2023-02-14T16:49:30.488Z,55.73
2023-02-14T16:51:58.256Z,55.62
2023-02-14T16:54:26.299Z,55.43
2023-02-14T16:57:02.785Z,56.06
2023-02-14T16:59:30.953Z,55.30
2023-02-14T17:01:59.365Z,55.99
2023-02-14T17:04:27.481Z,55.97
2023-02-14T17:06:57.823Z,55.90
2023-02-14T17:09:32.638Z,55.38
2023-02-14T17:12:02.358Z,55.82
2023-02-14T17:14:33.018Z,55.77
2023-02-14T17:17:00.863Z,56.20
2023-02-14T17:19:28.824Z,55.87
2023-02-14T17:22:00.654Z,55.96
2023-02-14T17:24:28.465Z,55.89
2023-02-14T17:26:56.345Z,55.82
2023-02-14T17:29:24.128Z,55.73
2023-02-14T17:31:52.243Z,55.22
2023-02-14T17:34:20.138Z,55.63
2023-02-14T17:36:48.577Z,55.99
2023-02-14T17:39:18.920Z,55.43
2023-02-14T17:41:47.234Z,55.01
2023-02-14T17:44:16.176Z,53.90
2023-02-14T17:46:44.430Z,53.29
2023-02-14T17:49:12.762Z,52.58
2023-02-14T17:51:40.556Z,51.41
2023-02-14T17:54:08.565Z,51.22
2023-02-14T17:56:36.328Z,49.98
2023-02-14T17:59:04.469Z,49.75
2023-02-14T18:01:34.961Z,50.13
2023-02-14T18:04:03.557Z,50.42
2023-02-14T18:06:33.013Z,50.39
2023-02-14T18:09:02.055Z,51.00
2023-02-14T18:11:30.962Z,51.51
2023-02-14T18:14:00.158Z,51.41
2023-02-14T18:16:28.586Z,51.02
2023-02-14T18:18:56.739Z,51.21
2023-02-14T18:21:24.950Z,50.89
2023-02-14T18:23:53.409Z,50.32
2023-02-14T18:26:21.161Z,50.80
2023-02-14T18:28:51.649Z,50.37
2023-02-14T18:31:19.623Z,50.78
2023-02-14T18:33:48.398Z,50.71
2023-02-14T18:36:18.706Z,50.81
2023-02-14T18:38:48.341Z,50.92
2023-02-14T18:41:17.561Z,50.27
2023-02-14T18:43:45.752Z,49.83
2023-02-14T18:46:16.233Z,50.18
2023-02-14T18:48:48.200Z,50.83
2023-02-14T18:51:24.673Z,50.28
2023-02-14T18:53:52.642Z,50.88
2023-02-14T18:56:31.648Z,51.41
2023-02-14T18:59:01.830Z,51.59
2023-02-14T19:01:31.596Z,51.55
2023-02-14T19:04:00.497Z,51.93
2023-02-14T19:06:30.012Z,52.90
2023-02-14T19:08:58.637Z,52.93
2023-02-14T19:11:28.561Z,52.68
2023-02-14T19:13:57.340Z,52.73
2023-02-14T19:16:33.748Z,52.94
2023-02-14T19:19:03.007Z,52.71
2023-02-14T19:21:32.941Z,52.44
2023-02-14T19:24:01.615Z,51.99
2023-02-14T19:26:33.146Z,52.25
2023-02-14T19:29:02.667Z,51.52
2023-02-14T19:31:31.008Z,51.56
2023-02-14T19:33:59.089Z,51.50
2023-02-14T19:36:27.006Z,51.30
2023-02-14T19:38:56.444Z,50.96
2023-02-14T19:41:30.572Z,50.57
2023-02-14T19:43:59.489Z,50.73
2023-02-14T19:46:28.339Z,49.98
2023-02-14T19:48:57.678Z,50.50
2023-02-14T19:51:30.219Z,49.92
2023-02-14T19:53:59.668Z,50.13
2023-02-14T19:56:29.453Z,49.58
2023-02-14T19:58:57.715Z,50.38
2023-02-14T20:01:27.772Z,51.41
2023-02-14T20:03:55.837Z,51.22
2023-02-14T20:06:24.267Z,51.94
2023-02-14T20:08:52.335Z,51.19
2023-02-14T20:11:30.964Z,51.74
2023-02-14T20:13:59.719Z,52.27
2023-02-14T20:16:28.538Z,52.55
2023-02-14T20:18:56.503Z,52.80
2023-02-14T20:21:28.868Z,52.79
2023-02-14T20:24:01.143Z,53.13
2023-02-14T20:26:29.887Z,53.35
2023-02-14T20:29:04.066Z,52.97
2023-02-14T20:31:32.993Z,53.40
2023-02-14T20:34:00.991Z,53.40
2023-02-14T20:36:29.062Z,53.38
2023-02-14T20:39:01.142Z,52.90
2023-02-14T20:41:29.437Z,52.90
2023-02-14T20:44:03.371Z,52.23
2023-02-14T20:46:32.161Z,52.09
2023-02-14T20:49:00.413Z,52.05
2023-02-14T20:51:28.453Z,52.33
2023-02-14T20:53:56.322Z,52.26
2023-02-14T20:56:24.334Z,52.35
2023-02-14T20:58:52.597Z,51.75
2023-02-14T21:01:24.457Z,51.50
2023-02-14T21:03:53.470Z,50.73
2023-02-14T21:06:23.603Z,50.67
2023-02-14T21:08:51.490Z,50.53
2023-02-14T21:11:20.651Z,50.08
2023-02-14T21:13:48.467Z,48.92
2023-02-14T21:16:17.878Z,48.74
2023-02-14T21:18:48.971Z,48.64
2023-02-14T21:21:20.931Z,49.17
2023-02-14T21:23:52.362Z,48.79
2023-02-14T21:26:20.706Z,48.97
2023-02-14T21:28:48.837Z,48.60
2023-02-14T21:31:18.530Z,49.10
2023-02-14T21:33:46.374Z,48.54
2023-02-14T21:36:16.276Z,48.09
2023-02-14T21:38:44.334Z,47.84
2023-02-14T21:41:14.139Z,49.06
2023-02-14T21:43:43.988Z,48.33
2023-02-14T21:46:27.780Z,48.21
2023-02-14T21:49:14.298Z,48.69
2023-02-14T21:51:42.465Z,48.11
2023-02-14T21:54:10.642Z,47.51
2023-02-14T21:56:39.198Z,48.22
2023-02-14T21:59:07.058Z,48.71
2023-02-14T22:01:35.933Z,48.26
2023-02-14T22:04:08.116Z,48.78
2023-02-14T22:06:38.050Z,48.66
2023-02-14T22:09:05.932Z,48.66
2023-02-14T22:11:34.231Z,48.71
2023-02-14T22:14:02.003Z,49.31
2023-02-14T22:16:30.204Z,49.11
2023-02-14T22:18:58.259Z,49.32
2023-02-14T22:21:26.989Z,48.97
2023-02-14T22:23:56.000Z,48.69
2023-02-14T22:26:28.882Z,48.30
2023-02-14T22:28:59.753Z,48.95
2023-02-14T22:31:29.754Z,48.35
2023-02-14T22:33:57.751Z,48.10
2023-02-14T22:36:25.732Z,48.23
2023-02-14T22:38:53.640Z,48.00
2023-02-14T22:41:23.096Z,48.38
2023-02-14T22:43:51.556Z,48.40
2023-02-14T22:46:21.592Z,48.18
2023-02-14T22:48:49.830Z,47.79
2023-02-14T22:51:27.991Z,48.23
2023-02-14T22:54:00.995Z,47.60
2023-02-14T22:56:36.289Z,47.77
2023-02-14T22:59:06.684Z,47.81
2023-02-14T23:01:35.122Z,47.95
2023-02-14T23:04:03.571Z,47.48
2023-02-14T23:06:33.107Z,47.63
2023-02-14T23:09:01.568Z,47.46
2023-02-14T23:11:30.628Z,47.98
2023-02-14T23:14:17.472Z,48.27
2023-02-14T23:17:03.944Z,47.90
2023-02-14T23:19:52.404Z,48.06
2023-02-14T23:22:28.379Z,47.85
2023-02-14T23:25:00.585Z,48.42
2023-02-14T23:27:34.129Z,48.44
2023-02-14T23:30:02.575Z,48.00
2023-02-14T23:32:30.437Z,48.82
2023-02-14T23:34:58.771Z,48.92
2023-02-14T23:37:26.590Z,48.93
2023-02-14T23:39:54.362Z,48.90
2023-02-14T23:42:22.541Z,48.57
2023-02-14T23:44:50.328Z,48.79
2023-02-14T23:47:18.696Z,48.96
2023-02-14T23:49:46.613Z,48.74
2023-02-14T23:52:15.106Z,49.38
2023-02-14T23:54:42.937Z,49.39
2023-02-14T23:57:10.819Z,49.65
2023-02-14T23:59:38.593Z,49.56
